createdAt,value
2022-10-18T00:01:05.874Z,100.00
2022-10-18T00:06:10.755Z,100.00
2022-10-18T00:11:13.502Z,100.00
2022-10-18T00:16:17.916Z,100.00
2022-10-18T00:21:24.095Z,100.00
2022-10-18T00:26:28.724Z,100.00
2022-10-18T00:31:33.649Z,100.00
2022-10-18T00:36:37.830Z,100.00
2022-10-18T00:41:40.587Z,100.00
2022-10-18T00:46:45.679Z,100.00
2022-10-18T00:51:52.830Z,100.00
2022-10-18T00:56:55.718Z,100.00
2022-10-18T01:01:58.603Z,100.00
2022-10-18T01:07:11.558Z,100.00
2022-10-18T01:12:23.272Z,100.00
2022-10-18T01:17:31.290Z,100.00
2022-10-18T01:22:40.903Z,100.00
2022-10-18T01:27:49.755Z,100.00
2022-10-18T01:32:57.122Z,100.00
2022-10-18T01:38:04.195Z,100.00
2022-10-18T01:43:09.310Z,100.00
2022-10-18T01:48:15.105Z,100.00
2022-10-18T01:53:29.971Z,100.00
2022-10-18T01:58:38.418Z,100.00
2022-10-18T02:03:47.503Z,100.00
2022-10-18T02:08:56.248Z,100.00
2022-10-18T02:14:04.408Z,100.00
2022-10-18T02:19:14.013Z,100.00
2022-10-18T02:24:18.574Z,100.00
2022-10-18T02:29:21.516Z,100.00
2022-10-18T02:34:30.610Z,100.00
2022-10-18T02:39:36.438Z,100.00
2022-10-18T02:44:39.625Z,100.00
2022-10-18T02:49:43.751Z,100.00
2022-10-18T02:54:46.605Z,100.00
2022-10-18T02:59:49.418Z,100.00
2022-10-18T03:04:53.534Z,100.00
2022-10-18T03:09:56.309Z,100.00
2022-10-18T03:14:59.105Z,100.00
2022-10-18T03:20:03.232Z,100.00
2022-10-18T03:25:06.744Z,100.00
2022-10-18T03:30:13.390Z,100.00
2022-10-18T03:35:17.681Z,100.00
2022-10-18T03:40:20.741Z,100.00
2022-10-18T03:45:27.452Z,100.00
2022-10-18T03:50:34.573Z,100.00
2022-10-18T03:55:38.494Z,100.00
2022-10-18T04:00:41.322Z,100.00
2022-10-18T04:05:45.789Z,100.00
2022-10-18T04:10:48.642Z,100.00
2022-10-18T04:15:51.400Z,100.00
2022-10-18T04:20:55.546Z,100.00
2022-10-18T04:25:58.684Z,100.00
2022-10-18T04:31:01.730Z,100.00
2022-10-18T04:36:06.278Z,100.00
2022-10-18T04:41:09.078Z,100.00
2022-10-18T04:46:11.966Z,100.00
2022-10-18T04:51:16.157Z,100.00
2022-10-18T04:56:19.416Z,100.00
2022-10-18T05:01:22.251Z,100.00
2022-10-18T05:06:26.508Z,100.00
2022-10-18T05:11:29.343Z,100.00
2022-10-18T05:16:33.043Z,100.00
2022-10-18T05:21:37.317Z,100.00
2022-10-18T05:26:40.371Z,100.00
2022-10-18T05:31:43.307Z,100.00
2022-10-18T05:36:49.432Z,100.00
2022-10-18T05:41:52.251Z,100.00
2022-10-18T05:46:55.063Z,100.00
2022-10-18T05:51:59.161Z,100.00
2022-10-18T05:57:01.968Z,100.00
2022-10-18T06:02:04.759Z,100.00
2022-10-18T06:07:11.258Z,100.00
2022-10-18T06:12:14.072Z,100.00
2022-10-18T06:17:16.864Z,100.00
2022-10-18T06:22:21.203Z,100.00
2022-10-18T06:27:23.948Z,100.00
2022-10-18T06:32:26.706Z,100.00
2022-10-18T06:37:31.752Z,100.00
2022-10-18T06:42:34.914Z,100.00
2022-10-18T06:47:37.879Z,100.00
2022-10-18T06:52:42.431Z,100.00
2022-10-18T06:57:45.638Z,100.00
2022-10-18T07:02:48.599Z,100.00
2022-10-18T07:07:55.757Z,100.00
2022-10-18T07:13:26.992Z,100.00
2022-10-18T07:23:45.941Z,100.00
2022-10-18T07:28:52.281Z,100.00
2022-10-18T07:33:55.343Z,100.00
2022-10-18T07:39:00.678Z,100.00
2022-10-18T07:44:04.861Z,100.00
2022-10-18T07:49:07.719Z,100.00
2022-10-18T07:54:12.166Z,100.00
2022-10-18T07:59:15.063Z,100.00
2022-10-18T08:04:17.959Z,100.00
2022-10-18T08:09:22.116Z,100.00
2022-10-18T08:14:25.135Z,100.00
2022-10-18T08:19:27.869Z,100.00
2022-10-18T08:24:32.105Z,100.00
2022-10-18T08:29:34.950Z,100.00
2022-10-18T08:39:42.830Z,100.00
2022-10-18T08:44:47.092Z,100.00
2022-10-18T08:49:53.016Z,100.00
2022-10-18T08:55:03.792Z,100.00
2022-10-18T09:00:16.854Z,100.00
2022-10-18T09:05:29.131Z,100.00
2022-10-18T09:10:44.640Z,100.00
2022-10-18T09:15:56.167Z,100.00
2022-10-18T09:21:00.639Z,100.00
2022-10-18T09:26:11.723Z,99.96
2022-10-18T09:31:20.074Z,99.98
2022-10-18T09:36:25.384Z,100.00
2022-10-18T09:41:35.677Z,100.00
2022-10-18T09:46:41.911Z,99.74
2022-10-18T09:51:46.037Z,98.49
2022-10-18T09:56:53.267Z,98.63
2022-10-18T10:01:56.482Z,99.08
2022-10-18T10:07:02.324Z,95.76
2022-10-18T10:12:07.824Z,93.69
2022-10-18T10:17:23.650Z,95.58
2022-10-18T10:22:33.244Z,96.51
2022-10-18T10:27:43.491Z,97.18
2022-10-18T10:32:49.146Z,98.23
2022-10-18T10:37:53.390Z,98.51
2022-10-18T10:43:18.170Z,99.67
2022-10-18T10:48:33.515Z,98.01
2022-10-18T10:53:41.228Z,96.34
2022-10-18T10:58:45.847Z,93.96
2022-10-18T11:03:50.743Z,91.99
2022-10-18T11:08:57.285Z,90.79
2022-10-18T11:14:30.288Z,88.86
2022-10-18T11:19:40.116Z,85.25
2022-10-18T11:24:43.336Z,83.13
2022-10-18T11:30:01.844Z,80.38
2022-10-18T11:35:12.505Z,80.01
2022-10-18T11:40:33.604Z,79.61
2022-10-18T11:45:47.758Z,79.77
2022-10-18T11:50:59.752Z,81.23
2022-10-18T11:56:14.855Z,79.76
2022-10-18T12:01:28.707Z,77.34
2022-10-18T12:06:36.042Z,77.85
2022-10-18T12:11:47.184Z,78.97
2022-10-18T12:17:06.779Z,80.33
2022-10-18T12:22:21.829Z,80.74
2022-10-18T12:27:33.866Z,78.12
2022-10-18T12:32:38.819Z,75.74
2022-10-18T12:38:04.510Z,70.93
2022-10-18T12:43:18.902Z,71.64
2022-10-18T12:48:32.796Z,73.59
2022-10-18T12:53:36.473Z,74.35
2022-10-18T12:58:39.176Z,74.75
2022-10-18T13:03:54.048Z,73.39
2022-10-18T13:09:20.771Z,71.95
2022-10-18T13:15:07.066Z,71.15
2022-10-18T13:20:27.326Z,66.59
2022-10-18T13:25:37.608Z,65.98
2022-10-18T13:30:48.842Z,66.88
2022-10-18T13:35:55.991Z,67.38
2022-10-18T13:41:06.808Z,66.92
2022-10-18T13:46:09.773Z,68.09
2022-10-18T13:51:36.440Z,69.05
2022-10-18T13:56:57.488Z,68.64
2022-10-18T14:02:50.646Z,69.98
2022-10-18T14:08:02.553Z,69.91
2022-10-18T14:13:14.876Z,70.82
2022-10-18T14:18:23.074Z,69.48
2022-10-18T14:23:28.762Z,68.63
2022-10-18T14:28:54.948Z,68.33
2022-10-18T14:33:57.881Z,68.67
2022-10-18T14:39:05.209Z,68.30
2022-10-18T14:44:19.428Z,69.33
2022-10-18T14:49:22.898Z,71.92
2022-10-18T14:54:32.318Z,73.27
2022-10-18T14:59:45.972Z,71.54
2022-10-18T15:04:56.909Z,72.83
2022-10-18T15:10:03.990Z,72.88
2022-10-18T15:15:09.084Z,74.46
2022-10-18T15:20:21.417Z,75.84
2022-10-18T15:25:31.833Z,77.41
2022-10-18T15:30:40.998Z,78.03
2022-10-18T15:35:43.764Z,78.55
2022-10-18T15:40:48.550Z,78.51
2022-10-18T15:45:53.097Z,79.34
2022-10-18T15:50:57.536Z,81.21
2022-10-18T15:56:03.676Z,79.26
2022-10-18T16:01:09.097Z,78.79
2022-10-18T16:06:15.908Z,79.43
2022-10-18T16:11:24.745Z,80.30
2022-10-18T16:16:29.611Z,80.19
2022-10-18T16:21:34.361Z,81.03
2022-10-18T16:26:39.127Z,80.53
2022-10-18T16:31:42.416Z,81.98
2022-10-18T16:36:45.390Z,83.23
2022-10-18T16:41:49.846Z,83.20
2022-10-18T16:46:54.169Z,85.08
2022-10-18T16:52:00.039Z,85.43
2022-10-18T16:57:04.615Z,85.74
2022-10-18T17:02:09.278Z,86.21
2022-10-18T17:07:23.503Z,85.17
2022-10-18T17:12:30.033Z,84.14
2022-10-18T17:17:33.510Z,85.87
2022-10-18T17:22:36.761Z,86.84
2022-10-18T17:27:45.037Z,86.97
2022-10-18T17:32:48.270Z,87.10
2022-10-18T17:37:53.461Z,87.87
2022-10-18T17:42:57.934Z,88.31
2022-10-18T17:48:04.085Z,88.79
2022-10-18T17:53:07.180Z,89.04
2022-10-18T17:58:11.646Z,89.57
2022-10-18T18:03:17.809Z,89.34
2022-10-18T18:08:20.769Z,90.47
2022-10-18T18:13:25.055Z,88.95
2022-10-18T18:18:27.874Z,86.93
2022-10-18T18:23:30.766Z,85.22
2022-10-18T18:28:36.016Z,83.16
2022-10-18T18:33:39.367Z,80.47
2022-10-18T18:38:43.500Z,79.62
2022-10-18T18:43:58.997Z,78.97
2022-10-18T18:49:06.618Z,80.05
2022-10-18T18:54:22.310Z,80.26
2022-10-18T18:59:26.575Z,81.46
2022-10-18T19:04:35.378Z,82.00
2022-10-18T19:10:29.841Z,83.04
2022-10-18T19:15:46.089Z,85.00
2022-10-18T19:20:49.239Z,86.03
2022-10-18T19:25:52.187Z,86.99
2022-10-18T19:30:58.314Z,88.31
2022-10-18T19:36:01.318Z,88.61
2022-10-18T19:41:04.147Z,88.09
2022-10-18T19:46:08.460Z,88.29
2022-10-18T19:51:17.290Z,85.80
2022-10-18T19:56:25.418Z,86.72
2022-10-18T20:01:30.471Z,87.78
2022-10-18T20:06:33.731Z,88.12
2022-10-18T20:11:37.404Z,87.43
2022-10-18T20:16:41.611Z,87.75
2022-10-18T20:21:44.476Z,86.96
2022-10-18T20:26:47.419Z,86.54
2022-10-18T20:31:55.518Z,86.43
2022-10-18T20:36:58.353Z,87.58
2022-10-18T20:42:01.257Z,89.01
2022-10-18T20:47:05.508Z,91.45
2022-10-18T20:52:08.656Z,95.13
2022-10-18T20:57:11.494Z,96.04
2022-10-18T21:02:15.977Z,96.76
2022-10-18T21:07:18.861Z,97.66
2022-10-18T21:12:21.703Z,98.44
2022-10-18T21:17:25.935Z,99.49
2022-10-18T21:22:28.736Z,99.00
2022-10-18T21:27:31.488Z,97.78
2022-10-18T21:32:36.117Z,96.61
2022-10-18T21:37:39.108Z,96.91
2022-10-18T21:42:41.912Z,97.28
2022-10-18T21:47:47.600Z,96.73
2022-10-18T21:52:50.651Z,95.63
2022-10-18T21:57:53.467Z,94.17
2022-10-18T22:03:08.720Z,93.72
2022-10-18T22:08:11.513Z,92.00
2022-10-18T22:13:14.312Z,93.44
2022-10-18T22:18:18.708Z,93.79
2022-10-18T22:23:21.873Z,98.27
2022-10-18T22:28:24.893Z,100.00
2022-10-18T22:33:29.860Z,100.00
2022-10-18T22:38:33.934Z,100.00
2022-10-18T22:43:37.632Z,100.00
2022-10-18T22:48:42.502Z,100.00
2022-10-18T22:53:45.984Z,100.00
2022-10-18T22:58:49.080Z,100.00
2022-10-18T23:03:57.330Z,100.00
2022-10-18T23:09:01.807Z,100.00
2022-10-18T23:14:06.108Z,100.00
2022-10-18T23:19:15.748Z,100.00
2022-10-18T23:24:18.604Z,100.00
2022-10-18T23:29:21.420Z,100.00
2022-10-18T23:34:25.594Z,100.00
2022-10-18T23:39:28.359Z,100.00
2022-10-18T23:44:31.285Z,100.00
2022-10-18T23:49:35.441Z,100.00
2022-10-18T23:54:38.408Z,100.00
2022-10-18T23:59:41.173Z,100.00
